Farmington, WA (99104)

11:21 AM PST on February 14, 2016 (GMT -0800)
Farmington Area | | Change Station
CLOSE
Current Station
Personal Weather Station
Location: Farmington, WA
Elevation: 2612 ft
Nearby Weather Stations

Elev 2612 ft 47.04 °N, 117.05 °W | Updated 2 seconds ago

Overcast
Overcast
44.8 °F
Feels Like 45 °F
N
2.9
Wind Variable Wind from NW
Gusts 4.9 mph

Today
High -- | Low -- °F
--% Chance of Precip.
Yesterday
High -- | Low -- °F
Precip. -- in
Pressure 30.16 in
Visibility 10.0 miles
Clouds Overcast 10000 ft
Windchill 45 °F
Dew Point 41 °F
Humidity 87%
Rainfall 0.04 in
Snow Depth Not available.
6:55 AM 5:10 PM
Waxing Crescent, 44% visible
METAR KPUW 141853Z AUTO 24015G25KT 10SM OVC100 08/05 A3012 RMK AO2 SLP212 T00830050
Pressure 30.16 in
Visibility 10.0 miles
Clouds Overcast 10000 ft
Windchill 45 °F
Dew Point 41 °F
Humidity 87%
Rainfall 0.04 in
Snow Depth Not available.
6:55 AM 5:10 PM
Waxing Crescent, 44% visible
METAR KPUW 141853Z AUTO 24015G25KT 10SM OVC100 08/05 A3012 RMK AO2 SLP212 T00830050

10-Day Weather Forecast

Almanac

Astronomy

Feb. 14, 2016 Rise Set
Actual Time
Civil Twilight
Nautical Twilight
Astronomical Twilight
Moon
Length of Visible Light
Length of Day
Tomorrow will be .
, % of the Moon is Illuminated

Today's Extremes

State Highs State Lows

Community

WunderPhotos

Upload Photos

1,892,875 photos uploaded!

WunderBlog® & News

Nearby

Air Quality

  Air Quality AQ Index Pollutant
Not available.

Snow Depth

Station Depth Elevation

Earthquake Activity

City Distance Mag. Time & Date
Minimum magnitude displayed is 2.5.

Coastal Water Temperatures

Place Temperature

Stations

Nearby Weather Stations

Station Location Temp. Windchill Dew Point Humidity Wind Precip. Elev Updated Type
                   

Watches & Warnings

There are currently no watches in effect.